Seattle, Washington
Traffic Map
Current Weather Conditions
Seattle, Washington
Broken Clouds
Broken Clouds
52°
Feels Like: 52°
Wind Chill: 52° Ceiling: 2700
Heat Index: 52° Visibility: 10mi
Dew Point: 43° Wind: 6mph
Humidity: 71% Direction: 170° (S)
Pressure: 29.95in Gusts: 18mph
Raw Report DataKBFI 251707Z 17005G16KT 10SM BKN027 BKN033 11/06 A2995 RMK AO2 T01110061
Traffic Incident Summary
Active as of:
Severity:
Category:
InformationThere was an issue retrieving the traffic information for this location. Please try a different location or try again shortly.
Advertisements
Track Severe Weather on mobile